YBLN

Busselton Regional Airport

Airport
ICAO code
YBLN
IATA Code
BQB
Summary
ICAO Region
APAC
ICAO Territory
Location

Brusselton, Western Australia

Serving
Brusselton
Elevation
55 ft
Coordinates
33° 41' 14" S , 115° 24' 1" E
Metar
Observation
YBLN 291900Z AUTO 11011KT 9999 // NCD 16/10 Q1014 RF00.0/000.0
Station
Busselton Airport
Date/Time
2023-03-29 19:00:00
Wind direction
110°
Wind speed
11 kts
Lowest cloud amount
no clouds detected
Temperature
16°C
Dew point
10°C
Humidity
67%
QNH
1014 hPa
Weather condition
n/a

Airport map

Aerial View

SKYbrary Partners:

Safety knowledge contributed by: